CCG3 weather

Weyman Airpark
Burtt's Corner, New Brunswick, Canada

Public forecast

Using degrees Celsius for public forecast. Weather courtesy of forecast.io.

METAR (pilot weather report)

Closest report is Fredericton Airport, 16.8 nm (31.1 km) SE. Retrieved 2019/09/16 23:00 UTC (20 minutes ago):

CYFC 162300Z AUTO 28003KT 9SM SCT043 OVC070 14/11 A2991 RMK SLP130

TAF (pilot weather forecast)

Closest forecast is Fredericton Airport, 16.8 nm (31.1 km) SE. Retrieved 2019/09/16 18:42 UTC (5 hours ago):

TAF CYFC 161739Z 1618/1706 31010G20KT P6SM BKN030 FM162100 33010G20KT P6SM BKN025 TEMPO 1621/1706 5SM -SHRA BR BKN020 BECMG 1622/1624 31010KT RMK FCST BASED ON AUTO OBS. NXT FCST BY 170000Z